createdAt,value
2022-08-22T00:01:14.305Z,96340.31
2022-08-22T00:02:57.376Z,96341.66
2022-08-22T00:03:55.059Z,96341.31
2022-08-22T00:06:31.517Z,96338.28
2022-08-22T00:09:21.872Z,96329.47
2022-08-22T00:11:57.452Z,96340.13
2022-08-22T00:14:38.535Z,96336.88
2022-08-22T00:17:22.867Z,96340.81
2022-08-22T00:19:59.591Z,96330.41
2022-08-22T00:22:36.133Z,96335.69
2022-08-22T00:25:25.762Z,96337.00
2022-08-22T00:27:57.902Z,96334.56
2022-08-22T00:30:30.639Z,96338.44
2022-08-22T00:33:06.491Z,96336.06
2022-08-22T00:35:44.866Z,96339.41
2022-08-22T00:38:18.781Z,96335.84
2022-08-22T00:40:57.379Z,96334.72
2022-08-22T00:44:11.579Z,96334.72
2022-08-22T00:47:02.262Z,96334.13
2022-08-22T00:49:56.218Z,96334.06
2022-08-22T00:52:56.522Z,96337.38
2022-08-22T00:55:39.548Z,96333.38
2022-08-22T00:58:53.651Z,96332.88
2022-08-22T01:01:27.414Z,96330.19
2022-08-22T01:04:28.708Z,96331.84
2022-08-22T01:07:22.616Z,96326.41
2022-08-22T01:10:04.408Z,96332.13
2022-08-22T01:12:54.331Z,96330.78
2022-08-22T01:15:27.979Z,96331.91
2022-08-22T01:18:28.621Z,96334.34
2022-08-22T01:21:49.029Z,96338.50
2022-08-22T01:25:02.538Z,96340.19
2022-08-22T01:27:57.926Z,96336.63
2022-08-22T01:30:48.220Z,96339.03
2022-08-22T01:34:02.539Z,96338.34
2022-08-22T01:37:04.448Z,96326.78
2022-08-22T01:39:50.010Z,96335.09
2022-08-22T01:42:48.167Z,96341.47
2022-08-22T01:45:51.773Z,96343.41
2022-08-22T01:48:25.187Z,96330.78
2022-08-22T01:50:58.625Z,96328.50
2022-08-22T01:53:40.159Z,96341.41
2022-08-22T01:56:14.315Z,96339.78
2022-08-22T01:58:54.943Z,96339.22
2022-08-22T02:01:36.548Z,96350.22
2022-08-22T02:04:11.113Z,96351.31
2022-08-22T02:06:48.566Z,96353.56
2022-08-22T02:09:33.011Z,96358.53
2022-08-22T02:12:22.268Z,96351.94
2022-08-22T02:15:00.037Z,96359.03
2022-08-22T02:17:32.514Z,96349.75
2022-08-22T02:20:07.656Z,96351.69
2022-08-22T02:22:44.545Z,96352.13
2022-08-22T02:25:21.362Z,96352.69
2022-08-22T02:27:55.570Z,96353.25
2022-08-22T02:30:31.396Z,96354.38
2022-08-22T02:33:06.957Z,96356.28
2022-08-22T02:35:41.088Z,96353.56
2022-08-22T02:38:24.489Z,96348.94
2022-08-22T02:41:07.577Z,96349.84
2022-08-22T02:43:44.838Z,96347.16
2022-08-22T02:46:23.245Z,96352.44
2022-08-22T02:49:00.830Z,96352.44
2022-08-22T02:51:37.557Z,96339.53
2022-08-22T02:54:17.603Z,96350.25
2022-08-22T02:56:54.026Z,96353.06
2022-08-22T02:59:33.640Z,96347.06
2022-08-22T03:02:36.298Z,96350.09
2022-08-22T03:05:19.100Z,96347.97
2022-08-22T03:07:57.831Z,96344.97
2022-08-22T03:10:30.306Z,96349.41
2022-08-22T03:13:08.747Z,96355.94
2022-08-22T03:15:48.619Z,96351.88
2022-08-22T03:18:26.068Z,96357.56
2022-08-22T03:21:01.459Z,96353.72
2022-08-22T03:23:41.539Z,96357.56
2022-08-22T03:26:16.402Z,96359.84
2022-08-22T03:28:59.656Z,96352.72
2022-08-22T03:31:31.094Z,96348.88
2022-08-22T03:34:22.690Z,96350.28
2022-08-22T03:37:04.107Z,96348.13
2022-08-22T03:39:50.076Z,96349.47
2022-08-22T03:42:47.306Z,96353.34
2022-08-22T03:46:02.913Z,96350.59
2022-08-22T03:48:53.146Z,96347.88
2022-08-22T03:51:34.614Z,96349.03
2022-08-22T03:54:23.863Z,96340.84
2022-08-22T03:57:30.463Z,96348.56
2022-08-22T04:00:20.914Z,96348.34
2022-08-22T04:03:35.711Z,96347.78
2022-08-22T04:06:28.984Z,96344.31
2022-08-22T04:09:27.842Z,96347.06
2022-08-22T04:12:24.934Z,96348.44
2022-08-22T04:15:22.423Z,96341.91
2022-08-22T04:18:03.386Z,96343.59
2022-08-22T04:21:19.846Z,96355.16
2022-08-22T04:24:17.028Z,96359.81
2022-08-22T04:26:52.514Z,96345.03
2022-08-22T04:29:26.702Z,96357.13
2022-08-22T04:32:01.991Z,96357.16
2022-08-22T04:34:40.218Z,96362.09
2022-08-22T04:37:16.091Z,96358.31
2022-08-22T04:39:50.014Z,96355.03
2022-08-22T04:42:33.110Z,96358.88
2022-08-22T04:45:10.636Z,96357.56
2022-08-22T04:47:43.520Z,96361.16
2022-08-22T04:50:22.387Z,96346.94
2022-08-22T04:53:05.671Z,96351.59
2022-08-22T04:55:46.598Z,96361.19
2022-08-22T04:58:31.646Z,96356.00
2022-08-22T05:01:17.065Z,96367.25
2022-08-22T05:03:53.700Z,96361.00
2022-08-22T05:06:26.774Z,96363.19
2022-08-22T05:08:59.852Z,96366.22
2022-08-22T05:11:32.742Z,96364.88
2022-08-22T05:14:05.603Z,96374.44
2022-08-22T05:16:39.262Z,96372.47
2022-08-22T05:19:16.469Z,96365.34
2022-08-22T05:21:50.536Z,96373.88
2022-08-22T05:24:28.148Z,96371.94
2022-08-22T05:27:01.562Z,96368.91
2022-08-22T05:29:33.023Z,96374.09
2022-08-22T05:32:07.001Z,96370.53
2022-08-22T05:34:39.234Z,96373.88
2022-08-22T05:37:13.402Z,96369.72
2022-08-22T05:39:47.740Z,96373.03
2022-08-22T05:42:33.147Z,96378.75
2022-08-22T05:45:03.832Z,96382.59
2022-08-22T05:47:37.984Z,96383.69
2022-08-22T05:50:09.335Z,96374.94
2022-08-22T05:52:48.750Z,96384.78
2022-08-22T05:55:26.099Z,96388.84
2022-08-22T05:58:17.890Z,96394.25
2022-08-22T06:00:51.825Z,96401.28
2022-08-22T06:03:28.912Z,96400.94
2022-08-22T06:06:00.670Z,96397.06
2022-08-22T06:08:35.828Z,96397.25
2022-08-22T06:11:10.191Z,96407.06
2022-08-22T06:13:47.236Z,96400.41
2022-08-22T06:16:20.465Z,96407.13
2022-08-22T06:18:52.189Z,96395.03
2022-08-22T06:21:38.628Z,96399.59
2022-08-22T06:24:14.450Z,96407.19
2022-08-22T06:26:48.719Z,96404.66
2022-08-22T06:29:35.110Z,96401.84
2022-08-22T06:32:11.412Z,96403.19
2022-08-22T06:34:42.970Z,96408.09
2022-08-22T06:37:21.199Z,96402.28
2022-08-22T06:39:54.536Z,96409.09
2022-08-22T06:42:26.306Z,96411.22
2022-08-22T06:45:01.537Z,96404.06
2022-08-22T06:47:33.855Z,96404.81
2022-08-22T06:50:13.527Z,96411.03
2022-08-22T06:52:53.265Z,96412.59
2022-08-22T06:55:24.098Z,96401.03
2022-08-22T06:57:57.243Z,96398.81
2022-08-22T07:00:28.316Z,96413.81
2022-08-22T07:03:00.254Z,96421.69
2022-08-22T07:05:35.319Z,96412.03
2022-08-22T07:08:09.052Z,96420.75
2022-08-22T07:10:40.893Z,96424.53
2022-08-22T07:13:16.053Z,96421.72
2022-08-22T07:15:53.701Z,96420.50
2022-08-22T07:18:26.640Z,96414.94
2022-08-22T07:20:58.878Z,96419.56
2022-08-22T07:23:34.207Z,96423.03
2022-08-22T07:26:18.424Z,96418.88
2022-08-22T07:28:58.426Z,96429.19
2022-08-22T07:31:38.114Z,96422.19
2022-08-22T07:34:25.657Z,96426.56
2022-08-22T07:36:59.773Z,96424.94
2022-08-22T07:39:34.225Z,96421.69
2022-08-22T07:42:12.091Z,96426.63
2022-08-22T07:44:56.973Z,96428.06
2022-08-22T07:47:36.543Z,96424.75
2022-08-22T07:50:13.249Z,96419.94
2022-08-22T07:52:45.244Z,96413.56
2022-08-22T07:55:19.967Z,96416.94
2022-08-22T07:57:55.206Z,96419.03
2022-08-22T08:00:24.811Z,96418.91
2022-08-22T08:02:58.890Z,96418.88
2022-08-22T08:05:31.465Z,96420.91
2022-08-22T08:08:05.839Z,96423.47
2022-08-22T08:10:37.742Z,96420.56
2022-08-22T08:13:11.783Z,96431.34
2022-08-22T08:15:42.082Z,96436.13
2022-08-22T08:18:19.189Z,96431.56
2022-08-22T08:20:51.887Z,96429.44
2022-08-22T08:23:23.467Z,96430.31
2022-08-22T08:26:08.595Z,96425.16
2022-08-22T08:28:41.391Z,96419.47
2022-08-22T08:31:24.265Z,96416.47
2022-08-22T08:34:02.194Z,96421.69
2022-08-22T08:36:49.316Z,96417.16
2022-08-22T08:39:24.665Z,96417.97
2022-08-22T08:42:31.679Z,96413.00
2022-08-22T08:45:24.765Z,96414.75
2022-08-22T08:48:15.971Z,96404.09
2022-08-22T08:51:04.487Z,96403.16
2022-08-22T08:54:12.893Z,96408.16
2022-08-22T08:56:54.621Z,96416.38
2022-08-22T08:59:34.918Z,96409.25
2022-08-22T09:02:34.934Z,96408.53
2022-08-22T09:05:35.669Z,96402.41
2022-08-22T09:08:27.582Z,96402.59
2022-08-22T09:11:28.136Z,96404.72
2022-08-22T09:17:28.632Z,96405.53
2022-08-22T09:20:20.501Z,96408.94
2022-08-22T09:23:30.895Z,96412.06
2022-08-22T09:26:06.248Z,96400.03
2022-08-22T09:28:39.915Z,96415.88
2022-08-22T09:31:48.279Z,96411.53
2022-08-22T09:37:20.527Z,96413.34
2022-08-22T09:39:59.030Z,96422.16
2022-08-22T09:40:15.454Z,96415.47
2022-08-22T09:40:16.617Z,96413.59
2022-08-22T09:42:40.830Z,96419.97
2022-08-22T09:45:42.963Z,96424.97
2022-08-22T09:48:28.218Z,96421.47
2022-08-22T09:51:31.988Z,96430.13
2022-08-22T09:54:18.827Z,96418.38
2022-08-22T09:57:01.666Z,96421.19
2022-08-22T10:00:13.127Z,96415.91
2022-08-22T10:02:51.765Z,96423.09
2022-08-22T10:05:40.962Z,96428.63
2022-08-22T10:08:20.917Z,96424.00
2022-08-22T10:11:19.630Z,96419.34
2022-08-22T10:13:57.878Z,96416.50
2022-08-22T10:16:54.275Z,96421.59
2022-08-22T10:19:29.832Z,96423.22
2022-08-22T10:22:20.627Z,96416.78
2022-08-22T10:24:59.918Z,96419.63
2022-08-22T10:27:44.515Z,96413.56
2022-08-22T10:30:18.897Z,96419.91
2022-08-22T10:32:53.055Z,96425.25
2022-08-22T10:35:28.437Z,96424.00
2022-08-22T10:38:10.529Z,96426.25
2022-08-22T10:40:48.031Z,96422.03
2022-08-22T10:43:29.151Z,96429.28
2022-08-22T10:46:07.125Z,96433.84
2022-08-22T10:48:47.992Z,96434.38
2022-08-22T10:51:29.883Z,96419.19
2022-08-22T10:54:12.428Z,96424.44
2022-08-22T10:56:45.507Z,96414.13
2022-08-22T10:59:30.487Z,96428.59
2022-08-22T11:02:14.755Z,96415.94
2022-08-22T11:05:37.178Z,96427.13
2022-08-22T11:08:48.882Z,96424.19
2022-08-22T11:11:40.042Z,96434.63
2022-08-22T11:14:26.100Z,96429.59
2022-08-22T11:17:23.620Z,96433.47
2022-08-22T11:20:19.422Z,96430.09
2022-08-22T11:23:06.400Z,96428.63
2022-08-22T11:25:53.910Z,96437.41
2022-08-22T11:28:35.278Z,96434.00
2022-08-22T11:31:10.056Z,96428.13
2022-08-22T11:33:46.991Z,96435.22
2022-08-22T11:36:27.389Z,96438.75
2022-08-22T11:39:10.019Z,96431.84
2022-08-22T11:41:58.948Z,96436.84
2022-08-22T11:44:37.547Z,96424.56
2022-08-22T11:47:24.179Z,96428.34
2022-08-22T11:50:03.768Z,96434.50
2022-08-22T11:52:58.137Z,96427.72
2022-08-22T11:55:34.843Z,96433.59
2022-08-22T11:58:25.504Z,96429.91
2022-08-22T12:01:03.862Z,96429.19
2022-08-22T12:03:44.218Z,96433.78
2022-08-22T12:06:39.329Z,96425.19
2022-08-22T12:09:14.213Z,96435.84
2022-08-22T12:11:58.996Z,96429.97
2022-08-22T12:14:39.007Z,96430.41
2022-08-22T12:17:55.526Z,96433.31
2022-08-22T12:20:35.183Z,96426.06
2022-08-22T12:23:43.216Z,96414.03
2022-08-22T12:26:30.117Z,96416.28
2022-08-22T12:29:17.754Z,96422.63
2022-08-22T12:32:22.790Z,96422.03
2022-08-22T12:35:13.712Z,96423.97
2022-08-22T12:38:03.619Z,96422.38
2022-08-22T12:40:54.817Z,96414.81
2022-08-22T12:43:42.757Z,96412.47
2022-08-22T12:46:18.552Z,96418.84
2022-08-22T12:49:11.235Z,96404.88
2022-08-22T12:51:52.256Z,96399.09
2022-08-22T12:54:46.779Z,96403.88
2022-08-22T12:57:26.632Z,96390.38
2022-08-22T13:00:01.891Z,96400.88
2022-08-22T13:02:35.170Z,96400.53
2022-08-22T13:05:19.642Z,96394.50
2022-08-22T13:07:54.875Z,96385.72
2022-08-22T13:10:47.160Z,96386.84
2022-08-22T13:13:31.529Z,96391.97
2022-08-22T13:16:02.619Z,96397.53
2022-08-22T13:18:38.093Z,96399.47
2022-08-22T13:21:15.174Z,96404.34
2022-08-22T13:23:46.943Z,96398.34
2022-08-22T13:26:31.639Z,96406.09
2022-08-22T13:29:24.658Z,96399.16
2022-08-22T13:31:59.295Z,96407.75
2022-08-22T13:34:39.857Z,96404.91
2022-08-22T13:37:16.290Z,96399.34
2022-08-22T13:39:49.322Z,96401.09
2022-08-22T13:42:29.754Z,96408.28
2022-08-22T13:45:04.876Z,96409.38
2022-08-22T13:47:39.255Z,96397.81
2022-08-22T13:50:15.190Z,96399.41
2022-08-22T13:52:52.224Z,96389.03
2022-08-22T13:55:29.701Z,96399.97
2022-08-22T13:58:06.933Z,96394.09
2022-08-22T14:01:05.996Z,96395.34
2022-08-22T14:03:45.455Z,96403.88
2022-08-22T14:06:37.658Z,96399.59
2022-08-22T14:09:31.786Z,96402.03
2022-08-22T14:12:11.986Z,96406.47
2022-08-22T14:14:46.081Z,96405.28
2022-08-22T14:17:18.589Z,96404.53
2022-08-22T14:19:59.014Z,96392.53
2022-08-22T14:22:35.300Z,96396.56
2022-08-22T14:25:10.305Z,96400.16
2022-08-22T14:27:46.112Z,96401.38
2022-08-22T14:30:18.891Z,96394.13
2022-08-22T14:32:52.081Z,96393.72
2022-08-22T14:35:33.582Z,96387.31
2022-08-22T14:38:27.450Z,96384.44
2022-08-22T14:41:05.472Z,96387.28
2022-08-22T14:43:51.418Z,96384.09
2022-08-22T14:46:26.732Z,96389.72
2022-08-22T14:49:28.889Z,96386.53
2022-08-22T14:52:03.380Z,96386.53
2022-08-22T14:54:32.871Z,96397.00
2022-08-22T14:57:10.062Z,96391.78
2022-08-22T14:59:47.059Z,96398.56
2022-08-22T15:02:26.429Z,96381.19
2022-08-22T15:04:56.489Z,96384.03
2022-08-22T15:07:27.875Z,96370.69
2022-08-22T15:10:03.170Z,96372.63
2022-08-22T15:12:36.374Z,96374.34
2022-08-22T15:15:11.333Z,96373.75
2022-08-22T15:17:45.101Z,96368.22
2022-08-22T15:20:28.196Z,96369.84
2022-08-22T15:23:01.355Z,96372.75
2022-08-22T15:25:34.461Z,96367.53
2022-08-22T15:28:14.099Z,96371.50
2022-08-22T15:30:46.152Z,96365.97
2022-08-22T15:33:24.516Z,96359.72
2022-08-22T15:35:55.569Z,96368.16
2022-08-22T15:38:36.464Z,96374.16
2022-08-22T15:41:31.459Z,96366.97
2022-08-22T15:44:14.807Z,96352.38
2022-08-22T15:47:05.984Z,96359.66
2022-08-22T15:49:50.539Z,96359.75
2022-08-22T15:52:28.451Z,96364.91
2022-08-22T15:55:18.440Z,96364.38
2022-08-22T15:57:59.992Z,96363.19
2022-08-22T16:00:43.363Z,96359.03
2022-08-22T16:03:24.397Z,96363.88
2022-08-22T16:05:56.226Z,96358.41
2022-08-22T16:08:33.159Z,96358.13
2022-08-22T16:11:27.484Z,96364.50
2022-08-22T16:14:21.681Z,96361.59
2022-08-22T16:17:01.418Z,96369.22
2022-08-22T16:19:31.933Z,96365.91
2022-08-22T16:22:09.638Z,96364.69
2022-08-22T16:25:11.166Z,96364.00
2022-08-22T16:27:56.642Z,96361.00
2022-08-22T16:30:35.071Z,96357.78
2022-08-22T16:33:17.701Z,96359.63
2022-08-22T16:36:22.952Z,96353.59
2022-08-22T16:38:55.545Z,96346.75
2022-08-22T16:41:32.237Z,96349.22
2022-08-22T16:44:23.002Z,96355.66
2022-08-22T16:46:54.423Z,96362.63
2022-08-22T16:49:32.149Z,96357.78
2022-08-22T16:52:41.149Z,96354.78
2022-08-22T16:55:40.679Z,96355.72
2022-08-22T16:58:50.184Z,96358.22
2022-08-22T17:01:36.187Z,96371.41
2022-08-22T17:04:16.399Z,96361.81
2022-08-22T17:07:15.473Z,96368.75
2022-08-22T17:10:04.848Z,96375.34
2022-08-22T17:12:49.143Z,96372.72
2022-08-22T17:15:32.723Z,96367.19
2022-08-22T17:18:15.180Z,96365.56
2022-08-22T17:20:50.285Z,96370.53
2022-08-22T17:23:31.556Z,96367.03
2022-08-22T17:26:07.171Z,96371.75
2022-08-22T17:28:42.745Z,96375.13
2022-08-22T17:31:18.081Z,96370.81
2022-08-22T17:34:02.658Z,96366.63
2022-08-22T17:36:53.650Z,96368.97
2022-08-22T17:39:38.831Z,96376.91
2022-08-22T17:42:21.903Z,96380.78
2022-08-22T17:44:57.674Z,96378.28
2022-08-22T17:47:30.975Z,96386.06
2022-08-22T17:50:08.029Z,96386.72
2022-08-22T17:52:43.347Z,96385.69
2022-08-22T17:55:19.462Z,96387.06
2022-08-22T17:57:52.541Z,96388.66
2022-08-22T18:00:30.492Z,96393.00
2022-08-22T18:03:06.770Z,96392.28
2022-08-22T18:05:41.434Z,96394.50
2022-08-22T18:08:37.568Z,96392.19
2022-08-22T18:11:10.602Z,96398.19
2022-08-22T18:13:49.545Z,96395.03
2022-08-22T18:16:25.445Z,96391.13
2022-08-22T18:19:05.543Z,96402.88
2022-08-22T18:21:38.407Z,96394.47
2022-08-22T18:24:21.210Z,96392.03
2022-08-22T18:26:59.283Z,96404.22
2022-08-22T18:29:34.785Z,96401.78
2022-08-22T18:32:11.125Z,96398.56
2022-08-22T18:34:48.670Z,96400.97
2022-08-22T18:37:23.079Z,96405.88
2022-08-22T18:39:56.756Z,96401.88
2022-08-22T18:42:30.984Z,96411.34
2022-08-22T18:44:59.963Z,96406.00
2022-08-22T18:47:32.689Z,96408.63
2022-08-22T18:50:04.093Z,96416.78
2022-08-22T18:52:41.402Z,96411.22
2022-08-22T18:55:28.224Z,96414.03
2022-08-22T18:58:27.246Z,96416.91
2022-08-22T19:01:09.611Z,96421.31
2022-08-22T19:03:50.914Z,96415.66
2022-08-22T19:06:38.750Z,96421.97
2022-08-22T19:09:28.487Z,96425.69
2022-08-22T19:12:04.347Z,96418.19
2022-08-22T19:15:06.037Z,96429.50
2022-08-22T19:17:58.799Z,96430.94
2022-08-22T19:20:49.987Z,96437.72
2022-08-22T19:23:47.410Z,96447.09
2022-08-22T19:26:32.391Z,96444.34
2022-08-22T19:29:08.769Z,96439.69
2022-08-22T19:31:48.013Z,96448.06
2022-08-22T19:34:22.083Z,96445.00
2022-08-22T19:37:32.972Z,96443.53
2022-08-22T19:40:09.557Z,96445.00
2022-08-22T19:42:40.575Z,96442.38
2022-08-22T19:45:23.472Z,96437.00
2022-08-22T19:48:00.625Z,96451.78
2022-08-22T19:50:34.238Z,96445.91
2022-08-22T19:53:14.664Z,96444.28
2022-08-22T19:56:00.210Z,96446.47
2022-08-22T19:58:40.161Z,96448.44
2022-08-22T20:01:32.371Z,96449.25
2022-08-22T20:04:10.181Z,96450.22
2022-08-22T20:06:44.487Z,96456.88
2022-08-22T20:09:28.094Z,96453.63
2022-08-22T20:12:06.986Z,96452.16
2022-08-22T20:14:37.203Z,96457.19
2022-08-22T20:17:11.143Z,96433.59
2022-08-22T20:22:45.121Z,96451.63
2022-08-22T20:25:43.034Z,96443.97
2022-08-22T20:28:28.347Z,96453.91
2022-08-22T20:31:00.807Z,96448.72
2022-08-22T20:33:33.751Z,96447.53
2022-08-22T20:36:06.929Z,96438.78
2022-08-22T20:38:59.451Z,96445.69
2022-08-22T20:41:33.730Z,96439.56
2022-08-22T20:44:11.137Z,96441.94
2022-08-22T20:46:53.642Z,96441.13
2022-08-22T20:49:28.644Z,96439.34
2022-08-22T20:52:00.578Z,96443.28
2022-08-22T20:54:32.203Z,96437.59
2022-08-22T20:57:02.639Z,96429.00
2022-08-22T20:59:39.796Z,96442.16
2022-08-22T21:02:14.519Z,96437.78
2022-08-22T21:04:50.477Z,96433.66
2022-08-22T21:07:24.314Z,96436.06
2022-08-22T21:10:21.613Z,96432.13
2022-08-22T21:13:09.528Z,96436.13
2022-08-22T21:15:41.489Z,96435.53
2022-08-22T21:18:10.888Z,96422.22
2022-08-22T21:20:41.007Z,96427.03
2022-08-22T21:23:15.341Z,96425.28
2022-08-22T21:25:58.370Z,96429.03
2022-08-22T21:28:30.421Z,96430.66
2022-08-22T21:30:59.666Z,96425.78
2022-08-22T21:33:29.300Z,96429.84
2022-08-22T21:36:00.727Z,96425.31
2022-08-22T21:38:30.835Z,96420.34
2022-08-22T21:41:05.654Z,96422.88
2022-08-22T21:43:37.712Z,96422.50
2022-08-22T21:46:06.680Z,96416.09
2022-08-22T21:48:44.053Z,96425.72
2022-08-22T21:51:24.180Z,96416.09
2022-08-22T21:54:20.500Z,96420.97
2022-08-22T21:56:49.377Z,96412.72
2022-08-22T21:59:24.951Z,96422.34
2022-08-22T22:01:55.458Z,96415.38
2022-08-22T22:04:23.917Z,96420.88
2022-08-22T22:06:53.237Z,96412.56
2022-08-22T22:09:23.249Z,96421.63
2022-08-22T22:11:51.959Z,96418.56
2022-08-22T22:14:20.286Z,96418.38
2022-08-22T22:16:49.237Z,96426.75
2022-08-22T22:19:17.516Z,96424.91
2022-08-22T22:21:46.987Z,96416.97
2022-08-22T22:24:15.326Z,96414.53
2022-08-22T22:26:45.838Z,96415.66
2022-08-22T22:29:14.244Z,96429.75
2022-08-22T22:31:43.275Z,96431.69
2022-08-22T22:34:12.016Z,96407.72
2022-08-22T22:36:41.747Z,96428.00
2022-08-22T22:39:11.450Z,96434.13
2022-08-22T22:41:39.800Z,96432.09
2022-08-22T22:44:09.972Z,96431.78
2022-08-22T22:46:38.746Z,96426.91
2022-08-22T22:49:07.479Z,96425.84
2022-08-22T22:51:36.142Z,96424.72
2022-08-22T22:54:05.012Z,96415.97
2022-08-22T22:56:33.886Z,96418.50
2022-08-22T22:59:13.182Z,96422.38
2022-08-22T23:02:06.378Z,96419.44
2022-08-22T23:04:37.134Z,96418.00
2022-08-22T23:07:07.682Z,96410.38
2022-08-22T23:09:38.590Z,96418.09
2022-08-22T23:12:14.053Z,96414.25
2022-08-22T23:14:42.338Z,96421.06
2022-08-22T23:17:13.398Z,96424.22
2022-08-22T23:19:42.422Z,96414.75
2022-08-22T23:22:14.600Z,96420.75
2022-08-22T23:24:43.862Z,96420.25
2022-08-22T23:27:13.098Z,96420.47
2022-08-22T23:29:42.112Z,96416.47
2022-08-22T23:32:13.286Z,96414.63
2022-08-22T23:34:46.441Z,96421.75
2022-08-22T23:37:18.158Z,96424.19
2022-08-22T23:39:48.201Z,96420.31
2022-08-22T23:42:18.394Z,96417.56
2022-08-22T23:44:47.468Z,96425.00
2022-08-22T23:47:17.730Z,96420.63
2022-08-22T23:49:46.690Z,96420.56
2022-08-22T23:52:15.959Z,96417.06
2022-08-22T23:54:44.817Z,96417.97
2022-08-22T23:57:13.311Z,96421.84
2022-08-22T23:59:48.028Z,96417.28
